Time;durP1;ratioP1;P1;durP2;ratioP2;P2;SDS_P1;SDS_P2;PMS_P1;PMS_P2;Temp;Humidity;BMP_temperature;BMP_pressure;BME280_temperature;BME280_humidity;BME280_pressure;Samples;Min_cycle;Max_cycle;Signal;HPM_P1;HPM_P2
2022/12/16 00:02:23;;;;;;;146.38;95.75;;;-3273.60;92.50;;;;;;5024356;28;20045;-76
2022/12/16 00:04:49;;;;;;;148.85;99.20;;;-3273.60;92.50;;;;;;5021578;28;20046;-76
2022/12/16 00:07:14;;;;;;;146.27;102.22;;;-3273.50;92.50;;;;;;5024014;28;20044;-75
2022/12/16 00:09:40;;;;;;;148.18;99.40;;;-3273.50;92.50;;;;;;5025080;28;20061;-76
2022/12/16 00:12:08;;;;;;;146.20;98.45;;;-3273.50;92.50;;;;;;5022227;28;20128;-76
2022/12/16 00:14:33;;;;;;;142.48;97.25;;;-3273.50;92.40;;;;;;5018081;28;20030;-76
2022/12/16 00:16:59;;;;;;;151.93;102.22;;;-3273.50;92.40;;;;;;5024392;28;20030;-75
2022/12/16 00:19:25;;;;;;;154.13;103.75;;;-3273.40;92.40;;;;;;5024836;28;20030;-75
2022/12/16 00:21:53;;;;;;;148.35;98.78;;;-3273.30;92.40;;;;;;5022574;28;20029;-75
2022/12/16 00:24:18;;;;;;;153.65;102.93;;;-3273.40;92.40;;;;;;5025520;28;20022;-75
2022/12/16 00:26:44;;;;;;;148.80;98.75;;;-3273.30;92.30;;;;;;5025659;28;20049;-76
2022/12/16 00:29:12;;;;;;;150.15;99.97;;;-3273.30;92.40;;;;;;5024013;28;20555;-76
2022/12/16 00:31:38;;;;;;;140.07;98.57;;;-3273.30;92.40;;;;;;5020275;28;20073;-76
2022/12/16 00:34:06;;;;;;;142.75;96.10;;;-3273.30;92.40;;;;;;5014168;28;20147;-75
2022/12/16 00:36:32;;;;;;;141.63;97.13;;;-3273.30;92.40;;;;;;5014602;28;20030;-75
2022/12/16 00:38:57;;;;;;;147.35;96.22;;;-3273.30;92.30;;;;;;5023840;28;20036;-75
2022/12/16 00:41:26;;;;;;;148.38;98.03;;;-3273.30;92.30;;;;;;4999413;28;20038;-76
2022/12/16 00:43:51;;;;;;;154.43;100.65;;;-3273.30;92.10;;;;;;5016244;28;20065;-76
2022/12/16 00:46:17;;;;;;;136.68;90.38;;;-3273.20;92.10;;;;;;5018548;28;20103;-76
2022/12/16 00:48:43;;;;;;;129.80;83.18;;;-3273.30;92.20;;;;;;5016103;28;20029;-75
2022/12/16 00:51:11;;;;;;;133.13;86.43;;;-3273.30;92.20;;;;;;5019498;28;20207;-76
2022/12/16 00:53:37;;;;;;;127.05;84.07;;;-3273.50;92.40;;;;;;5019112;28;20030;-75
2022/12/16 00:56:17;;;;;;;125.75;83.93;;;-3273.50;92.30;;;;;;5016138;28;20045;-76
2022/12/16 00:58:44;;;;;;;116.47;80.80;;;-3273.60;92.30;;;;;;5016906;28;20034;-75
2022/12/16 01:01:10;;;;;;;121.32;77.70;;;-3273.60;92.30;;;;;;5019484;28;20029;-75
2022/12/16 01:03:37;;;;;;;117.07;79.70;;;-3273.50;92.30;;;;;;5020154;28;20053;-75
2022/12/16 01:06:14;;;;;;;110.50;74.97;;;-3273.60;92.40;;;;;;4999186;28;20042;-75
2022/12/16 01:08:47;;;;;;;117.10;79.03;;;-3273.60;92.40;;;;;;5019221;28;20055;-75
2022/12/16 01:11:15;;;;;;;116.43;76.00;;;-3273.60;92.40;;;;;;5016794;28;20137;-76
2022/12/16 01:13:42;;;;;;;114.13;76.80;;;-3273.60;92.40;;;;;;5022962;28;20920;-76
2022/12/16 01:16:07;;;;;;;116.43;76.30;;;-3273.50;92.30;;;;;;5017964;28;20476;-75
2022/12/16 01:18:36;;;;;;;118.60;78.85;;;-3273.50;92.30;;;;;;5020356;28;20025;-75
2022/12/16 01:21:10;;;;;;;92.38;61.25;;;-3273.40;92.30;;;;;;5018072;28;20049;-75
2022/12/16 01:23:37;;;;;;;100.25;66.43;;;-3273.50;92.40;;;;;;5018127;28;20052;-75
2022/12/16 01:26:05;;;;;;;104.07;69.65;;;-3273.50;92.50;;;;;;5014977;28;20064;-76
2022/12/16 01:28:31;;;;;;;101.85;65.15;;;-3273.50;92.50;;;;;;5021552;28;20035;-76
2022/12/16 01:31:01;;;;;;;103.60;69.22;;;-3273.50;92.50;;;;;;5017611;28;20038;-76
2022/12/16 01:33:33;;;;;;;97.95;70.15;;;-3273.50;92.50;;;;;;5002882;28;20629;-75
2022/12/16 01:36:04;;;;;;;100.40;64.65;;;-3273.50;92.50;;;;;;5018688;28;20028;-75
2022/12/16 01:38:32;;;;;;;95.28;66.10;;;-3273.50;92.50;;;;;;5011004;28;20144;-75
2022/12/16 01:40:58;;;;;;;112.80;73.35;;;-3273.40;92.50;;;;;;5017834;28;20060;-75
2022/12/16 01:43:27;;;;;;;123.32;81.57;;;-3273.40;92.50;;;;;;5021221;28;20516;-75
2022/12/16 01:46:13;;;;;;;122.03;78.25;;;-3273.40;92.30;;;;;;5014476;28;20045;-75
2022/12/16 01:48:51;;;;;;;120.18;79.85;;;-3273.20;92.20;;;;;;5018803;28;20048;-75
2022/12/16 01:51:25;;;;;;;114.65;76.45;;;-3273.20;92.20;;;;;;5013509;28;20041;-75
2022/12/16 01:54:02;;;;;;;119.32;79.00;;;-3273.10;92.10;;;;;;4999153;28;20116;-75
2022/12/16 01:56:30;;;;;;;110.68;76.57;;;-3273.10;92.10;;;;;;5013845;28;20416;-75
2022/12/16 01:58:57;;;;;;;115.40;78.97;;;-3273.00;92.00;;;;;;5015957;28;20060;-75
2022/12/16 02:01:25;;;;;;;120.25;81.05;;;-3273.00;92.00;;;;;;5003570;28;20378;-75
2022/12/16 02:03:53;;;;;;;119.07;82.05;;;-3273.00;91.90;;;;;;5014070;28;20481;-74
2022/12/16 02:06:18;;;;;;;113.95;78.45;;;-3272.90;91.90;;;;;;4998342;28;20021;-75
2022/12/16 02:08:49;;;;;;;111.85;75.70;;;-3273.00;91.90;;;;;;5020581;28;20131;-75
2022/12/16 02:11:24;;;;;;;114.55;77.53;;;-3272.90;91.80;;;;;;5010968;28;20469;-75
2022/12/16 02:14:07;;;;;;;112.60;73.88;;;-3272.90;91.70;;;;;;5015112;28;20029;-75
2022/12/16 02:17:05;;;;;;;113.82;75.00;;;-3272.90;91.80;;;;;;5017549;28;20041;-75
2022/12/16 02:19:48;;;;;;;115.65;76.45;;;-3272.90;91.70;;;;;;5018612;28;20523;-75
2022/12/16 02:23:01;;;;;;;112.35;74.90;;;-3272.90;91.60;;;;;;5017263;28;21189;-75
2022/12/16 02:25:45;;;;;;;99.95;68.68;;;-3272.90;91.50;;;;;;4920778;29;20507;-75
2022/12/16 02:28:56;;;;;;;107.18;69.97;;;-3272.90;91.50;;;;;;4921884;29;20039;-75
2022/12/16 02:31:50;;;;;;;101.28;69.15;;;-3272.90;91.50;;;;;;4982073;28;20501;-75
2022/12/16 02:34:23;;;;;;;100.78;69.38;;;-3272.80;91.40;;;;;;5014428;28;20048;-74
2022/12/16 02:37:13;;;;;;;109.78;72.97;;;-3272.80;91.40;;;;;;5020619;28;20022;-75
2022/12/16 02:39:44;;;;;;;94.40;66.07;;;-3272.80;91.30;;;;;;5013187;28;20037;-75
2022/12/16 02:42:30;;;;;;;91.15;63.72;;;-3272.80;91.30;;;;;;5012452;28;20049;-75
2022/12/16 02:45:24;;;;;;;90.70;64.05;;;-3272.80;91.30;;;;;;5019540;28;20461;-75
2022/12/16 02:47:52;;;;;;;99.25;65.90;;;-3272.70;91.30;;;;;;5018693;28;20021;-76
2022/12/16 02:50:20;;;;;;;98.43;65.63;;;-3272.70;91.30;;;;;;5000884;28;20120;-75
2022/12/16 02:53:00;;;;;;;96.10;64.55;;;-3272.70;91.30;;;;;;5019483;28;21204;-75
2022/12/16 02:55:50;;;;;;;99.45;67.82;;;-3272.70;91.30;;;;;;5014674;28;20022;-75
2022/12/16 02:58:28;;;;;;;101.82;66.90;;;-3272.70;91.30;;;;;;5014582;28;20563;-74
2022/12/16 03:01:26;;;;;;;94.53;63.97;;;-3272.60;91.20;;;;;;5019623;28;20034;-75
2022/12/16 03:04:21;;;;;;;94.25;62.05;;;-3272.60;91.20;;;;;;5014761;28;20037;-75
2022/12/16 03:06:52;;;;;;;83.53;58.88;;;-3272.60;91.30;;;;;;5017035;28;20038;-75
2022/12/16 03:09:31;;;;;;;86.00;57.15;;;-3272.60;91.20;;;;;;5016460;28;20484;-75
2022/12/16 03:11:58;;;;;;;77.63;53.00;;;-3272.60;91.20;;;;;;5015645;28;20044;-75
2022/12/16 03:14:27;;;;;;;73.63;49.78;;;-3272.60;91.20;;;;;;5014716;28;20344;-75
2022/12/16 03:16:58;;;;;;;76.07;52.20;;;-3272.70;91.30;;;;;;5018139;28;20582;-75
2022/12/16 03:19:30;;;;;;;71.50;48.10;;;-3272.70;91.30;;;;;;5014659;28;20040;-75
2022/12/16 03:22:20;;;;;;;72.57;48.13;;;-3272.80;91.30;;;;;;5002101;28;20319;-75
2022/12/16 03:24:56;;;;;;;;;;;;;;;;;;;;;
2022/12/16 03:27:29;;;;;;;74.68;49.78;;;-3272.80;91.30;;;;;;5014265;28;20032;-75
2022/12/16 03:30:08;;;;;;;70.45;46.65;;;-3272.80;91.30;;;;;;5014099;28;20029;-75
2022/12/16 03:32:55;;;;;;;75.47;51.05;;;-3272.80;91.30;;;;;;5014545;28;20045;-76
2022/12/16 03:35:46;;;;;;;67.28;44.25;;;-3272.80;91.30;;;;;;5013863;28;21622;-76
2022/12/16 03:38:14;;;;;;;61.70;41.65;;;-3272.80;91.40;;;;;;4996579;28;20309;-75
2022/12/16 03:40:41;;;;;;;65.75;45.28;;;-3272.90;91.50;;;;;;5002176;28;20084;-75
2022/12/16 03:43:13;;;;;;;50.95;30.38;;;-3272.90;91.40;;;;;;5013964;28;20130;-75
2022/12/16 03:45:42;;;;;;;46.67;31.35;;;-3273.00;91.60;;;;;;5016601;28;20029;-75
2022/12/16 03:48:10;;;;;;;40.13;28.38;;;-3273.10;91.60;;;;;;5013749;28;20068;-75
2022/12/16 03:50:36;;;;;;;43.30;28.75;;;-3273.10;91.70;;;;;;5016883;28;20029;-76
2022/12/16 03:53:03;;;;;;;39.97;27.17;;;-3273.20;91.80;;;;;;5017569;28;20092;-76
2022/12/16 03:55:29;;;;;;;41.95;28.05;;;-3273.20;91.80;;;;;;5015761;28;20119;-76
2022/12/16 03:57:56;;;;;;;46.08;30.25;;;-3273.20;91.80;;;;;;5016741;28;20412;-76
2022/12/16 04:00:21;;;;;;;64.97;44.35;;;-3273.10;91.70;;;;;;5010236;28;20060;-76
2022/12/16 04:02:49;;;;;;;64.05;45.65;;;-3273.10;91.70;;;;;;5013507;28;20419;-76
2022/12/16 04:05:15;;;;;;;62.45;42.42;;;-3273.10;91.70;;;;;;5019733;28;20038;-76
2022/12/16 04:07:43;;;;;;;51.17;36.72;;;-3273.00;91.70;;;;;;5019924;28;20514;-75
2022/12/16 04:10:11;;;;;;;68.82;45.92;;;-3273.00;91.70;;;;;;5000890;28;20029;-76
2022/12/16 04:27:23;;;;;;;52.42;35.05;;;-3272.70;91.60;;;;;;5018643;28;20040;-75
2022/12/16 04:29:24;;;;;;;54.70;34.20;;;-3272.70;91.60;;;;;;5022395;28;20068;-75
2022/12/16 04:31:51;;;;;;;49.35;32.55;;;-3272.80;91.70;;;;;;5013135;28;20037;-75
2022/12/16 04:34:27;;;;;;;45.70;30.92;;;-3272.80;91.70;;;;;;5020540;28;20068;-75
